Time;durP1;ratioP1;P1;durP2;ratioP2;P2;SDS_P1;SDS_P2;PMS_P1;PMS_P2;Temp;Humidity;BMP_temperature;BMP_pressure;BME280_temperature;BME280_humidity;BME280_pressure;Samples;Min_cycle;Max_cycle;Signal;HPM_P1;HPM_P2
2024/03/12 00:00:53;;;;;;;;;43.40;32.80;;;;;11.13;66.07;101304.88;1982144;28;3617904;-67
2024/03/12 00:02:07;;;;;;;;;43.00;32.33;;;;;11.11;65.70;101303.19;1974382;28;3594983;-67
2024/03/12 00:03:17;;;;;;;;;40.50;32.00;;;;;11.10;65.85;101302.31;1969378;28;2858555;-67
2024/03/12 00:04:29;;;;;;;;;42.40;32.00;;;;;11.11;66.04;101303.19;1989499;28;3604846;-67
2024/03/12 00:05:41;;;;;;;;;43.40;33.40;;;;;11.10;66.02;101304.06;1991162;28;3607485;-67
2024/03/12 00:06:54;;;;;;;;;46.60;33.80;;;;;11.11;66.22;101305.81;1988527;28;3601242;-67
2024/03/12 00:08:07;;;;;;;;;40.60;33.20;;;;;11.08;66.21;101301.50;1983812;28;3602321;-67
2024/03/12 00:09:18;;;;;;;;;49.00;35.00;;;;;11.13;66.04;101312.75;1979056;28;2859588;-67
2024/03/12 00:10:30;;;;;;;;;40.00;30.33;;;;;11.11;66.08;101313.69;1995423;28;3618973;-67
2024/03/12 00:11:42;;;;;;;;;35.33;31.00;;;;;11.12;66.16;101313.66;1992613;28;3574233;-67
2024/03/12 00:12:54;;;;;;;;;39.40;33.40;;;;;11.12;66.10;101316.28;2002327;28;3586694;-67
2024/03/12 00:14:04;;;;;;;;;40.50;32.50;;;;;11.10;66.16;101317.22;1999842;28;2861743;-67
2024/03/12 00:15:18;;;;;;;;;41.00;32.00;;;;;11.12;66.04;101328.56;1995725;28;3603356;-67
2024/03/12 00:16:29;;;;;;;;;41.50;33.00;;;;;11.15;65.95;101325.88;1985098;28;2849195;-67
2024/03/12 00:17:40;;;;;;;;;47.60;35.00;;;;;11.17;66.13;101324.06;1990517;28;3611646;-67
2024/03/12 00:18:55;;;;;;;;;36.71;32.29;;;;;11.16;65.77;101324.94;1995550;28;3591862;-67
2024/03/12 00:20:15;;;;;;;;;40.00;30.00;;;;;11.17;65.85;101328.44;1978303;28;2877391;-67
2024/03/12 00:21:26;;;;;;;;;36.00;30.00;;;;;11.14;66.10;101330.25;1978482;28;2855489;-67
2024/03/12 00:22:39;;;;;;;;;36.20;31.60;;;;;11.18;65.97;101331.06;1978242;28;2867021;-67
2024/03/12 00:23:49;;;;;;;;;39.50;30.50;;;;;11.14;65.93;101332.88;1997071;28;2506497;-67
2024/03/12 00:25:01;;;;;;;;;40.80;32.00;;;;;11.19;65.98;101337.16;1994720;28;3589778;-67
2024/03/12 00:26:17;;;;;;;;;38.00;32.00;;;;;11.14;65.77;101325.00;2020357;28;3578359;-67
2024/03/12 00:27:28;;;;;;;;;39.00;33.00;;;;;11.19;65.87;101343.28;2001702;28;2834660;-67
2024/03/12 00:28:40;;;;;;;;;38.00;32.60;;;;;11.18;66.15;101336.31;1996443;28;3585609;-67
2024/03/12 00:29:53;;;;;;;;;38.80;32.00;;;;;11.21;66.02;101335.38;2021029;28;3575196;-67
2024/03/12 00:31:05;;;;;;;;;40.50;31.50;;;;;11.23;65.81;101344.09;1978500;28;2867572;-67
2024/03/12 00:32:17;;;;;;;;;35.00;30.00;;;;;11.22;65.92;101337.97;1979734;28;2856498;-67
2024/03/12 00:33:27;;;;;;;;;36.00;30.00;;;;;11.22;66.00;101343.22;1981248;28;2847089;-67
2024/03/12 00:34:39;;;;;;;;;46.00;33.00;;;;;11.24;65.94;101340.53;1998973;28;3600191;-67
2024/03/12 00:35:51;;;;;;;;;41.80;32.60;;;;;11.23;65.56;101337.06;1996253;28;3591870;-67
2024/03/12 00:37:03;;;;;;;;;36.00;29.80;;;;;11.23;65.78;101336.19;1997373;28;3599196;-67
2024/03/12 00:38:17;;;;;;;;;39.20;32.40;;;;;11.24;65.75;101340.53;1986121;28;3579870;-67
2024/03/12 00:39:28;;;;;;;;;35.50;32.00;;;;;11.24;66.07;101341.41;2002250;28;2861683;-67
2024/03/12 00:40:42;;;;;;;;;39.40;32.00;;;;;11.24;65.95;101343.16;1989214;28;3607834;-67
2024/03/12 00:41:56;;;;;;;;;32.67;26.00;;;;;11.27;66.01;101340.47;1979071;28;2850225;-67
2024/03/12 00:43:07;;;;;;;;;43.00;35.00;;;;;11.25;65.90;101342.28;1993678;28;2506517;-67
2024/03/12 00:44:19;;;;;;;;;41.40;33.80;;;;;11.26;65.80;101349.25;1992545;28;3585605;-67
2024/03/12 00:45:36;;;;;;;;;40.00;32.50;;;;;11.29;65.71;101358.84;1997870;28;2861679;-67
2024/03/12 00:46:47;;;;;;;;;43.00;32.00;;;;;11.28;65.86;101354.50;1970428;28;2875328;-67
2024/03/12 00:47:58;;;;;;;;;36.67;30.67;;;;;11.27;65.82;101360.66;1980368;28;3576239;-67
2024/03/12 00:49:10;;;;;;;;;42.40;32.40;;;;;11.24;65.69;101367.72;2022312;28;3611045;-67
2024/03/12 00:50:22;;;;;;;;;38.67;29.67;;;;;11.24;66.00;101372.09;1979035;28;3605443;-67
2024/03/12 00:51:34;;;;;;;;;41.20;32.00;;;;;11.24;65.80;101372.97;2002299;28;3599194;-67
2024/03/12 00:52:46;;;;;;;;;36.20;29.60;;;;;11.22;65.72;101363.41;1980353;28;3585660;-67
2024/03/12 00:53:59;;;;;;;;;42.40;33.40;;;;;11.21;65.88;101374.84;1982390;28;3609582;-67
2024/03/12 00:55:16;;;;;;;;;34.67;28.00;;;;;11.23;65.87;101375.66;1971789;28;3606469;-67
2024/03/12 00:56:27;;;;;;;;;38.00;32.50;;;;;11.24;65.66;101377.38;1968439;28;2852412;-67
2024/03/12 00:57:38;;;;;;;;;40.00;30.50;;;;;11.23;65.72;101375.66;1969168;28;2870037;-67
2024/03/12 00:58:50;;;;;;;;;36.50;30.00;;;;;11.25;65.70;101379.13;1977731;28;2865857;-67
2024/03/12 01:00:02;;;;;;;;;43.50;32.00;;;;;11.25;65.84;101380.00;1979928;28;2874182;-67
2024/03/12 01:01:14;;;;;;;;;36.50;31.50;;;;;11.24;65.74;101378.25;1980234;28;2863786;-67
2024/03/12 01:02:27;;;;;;;;;44.33;32.00;;;;;11.25;65.98;101384.38;1977373;28;3614779;-67
2024/03/12 01:03:38;;;;;;;;;43.00;32.00;;;;;11.29;65.59;101387.78;1979701;28;2871046;-67
2024/03/12 01:04:50;;;;;;;;;43.00;32.00;;;;;11.27;65.68;101385.19;1986181;28;3587731;-67
2024/03/12 01:06:02;;;;;;;;;37.80;32.40;;;;;11.28;65.72;101392.19;2000157;28;3589771;-67
2024/03/12 01:07:16;;;;;;;;;32.20;24.80;;;;;11.24;65.28;101391.41;1994376;28;3592917;-67
2024/03/12 01:08:28;;;;;;;;;38.00;30.00;;;;;11.26;65.80;101391.34;1977371;28;2845045;-67
2024/03/12 01:09:39;;;;;;;;;39.00;29.50;;;;;11.26;65.75;101396.63;1978903;28;2875225;-67
2024/03/12 01:10:51;;;;;;;;;43.20;31.40;;;;;11.25;65.54;101387.88;1994945;28;3612689;-67
2024/03/12 01:12:03;;;;;;;;;33.60;29.60;;;;;11.24;65.62;101396.66;1996874;28;3613324;-67
2024/03/12 01:13:15;;;;;;;;;31.00;27.40;;;;;11.21;65.61;101391.47;1989167;28;3600219;-67
2024/03/12 01:14:27;;;;;;;;;46.20;29.80;;;;;11.19;65.67;101395.91;1977481;28;3611692;-67
2024/03/12 01:15:39;;;;;;;;;35.00;28.40;;;;;11.18;65.57;101393.34;2000074;28;3617916;-67
2024/03/12 01:16:51;;;;;;;;;35.40;30.80;;;;;11.21;65.52;101390.63;1984159;28;3609582;-67
2024/03/12 01:18:03;;;;;;;;;34.00;28.00;;;;;11.20;65.94;101396.78;1999712;28;3598584;-67
2024/03/12 01:19:15;;;;;;;;;36.00;31.00;;;;;11.20;65.89;101386.25;1981705;28;3594367;-67
2024/03/12 01:20:27;;;;;;;;;35.20;28.60;;;;;11.17;65.64;101381.94;1995003;28;3608564;-67
2024/03/12 01:21:40;;;;;;;;;31.00;29.60;;;;;11.16;65.77;101380.19;1998590;28;3567897;-67
2024/03/12 01:22:54;;;;;;;;;39.00;32.00;;;;;11.18;65.70;101381.03;1999500;28;2857529;-67
2024/03/12 01:24:05;;;;;;;;;34.50;30.00;;;;;11.20;65.67;101378.38;1976670;28;2855442;-67
2024/03/12 01:25:17;;;;;;;;;36.00;27.60;;;;;11.19;65.62;101374.00;1972676;28;3593965;-67
2024/03/12 01:26:28;;;;;;;;;30.50;27.50;;;;;11.17;65.53;101376.69;1974842;28;2829397;-67
2024/03/12 01:27:41;;;;;;;;;33.50;26.00;;;;;11.20;65.39;101381.88;1981296;28;2840835;-67
2024/03/12 01:28:52;;;;;;;;;37.00;30.00;;;;;11.19;65.41;101384.50;1978878;28;2843964;-67
2024/03/12 01:30:13;;;;;;;;;36.20;27.80;;;;;11.19;65.79;101382.75;1999600;28;3616870;-67
2024/03/12 01:31:25;;;;;;;;;32.33;28.33;;;;;11.20;65.86;101387.13;1976537;28;3605467;-67
2024/03/12 01:32:38;;;;;;;;;29.67;26.00;;;;;11.20;65.54;101383.63;1992687;28;3588773;-67
2024/03/12 01:33:49;;;;;;;;;35.00;29.50;;;;;11.21;65.49;101386.22;1976833;28;2841944;-67
2024/03/12 01:35:03;;;;;;;;;25.33;24.33;;;;;11.23;65.65;101394.97;1991505;28;3589768;-67
2024/03/12 01:36:20;;;;;;;;;28.33;25.33;;;;;11.22;65.85;101387.94;2001690;28;2846440;-67
2024/03/12 01:37:31;;;;;;;;;35.50;28.50;;;;;11.27;65.42;101389.59;2001608;28;2855461;-67
2024/03/12 01:38:42;;;;;;;;;32.20;28.60;;;;;11.25;65.45;101380.00;1982339;28;3581443;-67
2024/03/12 01:39:54;;;;;;;;;30.00;23.67;;;;;11.27;65.70;101389.59;2016528;28;3590868;-67
2024/03/12 01:41:06;;;;;;;;;30.67;26.33;;;;;11.27;65.64;101379.06;1990893;28;3596132;-67
2024/03/12 01:42:21;;;;;;;;;28.00;18.67;;;;;11.32;65.42;101390.34;2015819;28;3572462;-67
2024/03/12 01:43:34;;;;;;;;;30.67;26.00;;;;;11.34;65.35;101388.53;1991155;28;3598144;-67
2024/03/12 01:44:45;;;;;;;;;34.33;26.00;;;;;11.34;65.72;101388.53;1969440;28;3592952;-67
2024/03/12 01:45:59;;;;;;;;;35.00;29.80;;;;;11.33;65.56;101386.81;1989402;28;3599182;-67
2024/03/12 01:47:13;;;;;;;;;29.00;23.00;;;;;11.36;65.61;101389.34;1970534;28;2843965;-67
2024/03/12 01:48:24;;;;;;;;;28.67;25.00;;;;;11.38;65.57;101391.97;1990379;28;3588738;-67
2024/03/12 01:49:36;;;;;;;;;23.67;22.00;;;;;11.38;65.12;101394.59;2006233;28;3571101;-67
2024/03/12 01:50:48;;;;;;;;;26.33;18.00;;;;;11.34;65.07;101393.78;2015263;28;3581505;-67
2024/03/12 01:52:00;;;;;;;;;30.33;22.00;;;;;11.33;65.28;101392.09;2000155;28;3584630;-67
2024/03/12 01:53:12;;;;;;;;;33.40;26.40;;;;;11.33;65.25;101392.09;2016342;28;3591858;-67
2024/03/12 01:54:24;;;;;;;;;32.60;24.40;;;;;11.34;65.40;101393.78;1987648;28;3615113;-67
2024/03/12 01:55:38;;;;;;;;;28.40;24.40;;;;;11.37;65.32;101399.00;1995511;28;3581457;-67
2024/03/12 01:56:49;;;;;;;;;31.33;25.67;;;;;11.35;65.39;101390.28;1980121;28;2843963;-67
2024/03/12 01:58:01;;;;;;;;;33.67;26.33;;;;;11.38;65.20;101397.22;1997187;28;3586700;-67
2024/03/12 01:59:11;;;;;;;;;29.00;25.00;;;;;11.38;64.97;101392.84;1975916;28;2851310;-67
2024/03/12 02:00:25;;;;;;;;;27.80;23.60;;;;;11.35;65.16;101390.28;1984559;28;3587689;-67
2024/03/12 02:01:36;;;;;;;;;25.50;22.00;;;;;11.37;65.17;101388.47;1995583;28;2846123;-67
2024/03/12 02:02:52;;;;;;;;;19.67;19.33;;;;;11.36;65.25;101387.59;1975498;28;3562741;-67
2024/03/12 02:04:04;;;;;;;;;23.00;21.00;;;;;11.38;65.16;101384.94;2001181;28;2836720;-67
2024/03/12 02:05:14;;;;;;;;;27.00;24.00;;;;;11.36;65.04;101376.19;1977934;28;2855524;-67
2024/03/12 02:06:27;;;;;;;;;26.60;21.80;;;;;11.39;65.11;101389.28;1998259;28;3587740;-67
2024/03/12 02:07:40;;;;;;;;;25.50;22.00;;;;;11.42;65.25;101383.94;2003135;28;2850268;-67
2024/03/12 02:08:52;;;;;;;;;27.50;23.50;;;;;11.43;65.27;101387.44;1979546;28;2850206;-67
2024/03/12 02:10:04;;;;;;;;;26.00;24.00;;;;;11.39;64.97;101381.38;1981356;28;2847128;-67
2024/03/12 02:11:16;;;;;;;;;27.33;24.00;;;;;11.41;64.91;101384.00;1971495;28;2842942;-67
2024/03/12 02:12:27;;;;;;;;;17.33;15.67;;;;;11.39;64.90;101385.78;1989979;28;3553893;-67
2024/03/12 02:13:40;;;;;;;;;23.40;20.00;;;;;11.37;65.03;101377.94;2014425;28;3561671;-67
2024/03/12 02:14:51;;;;;;;;;26.67;20.00;;;;;11.42;65.24;101388.34;1997715;28;3581974;-67
2024/03/12 02:16:05;;;;;;;;;24.00;21.67;;;;;11.41;65.18;101379.56;2016214;28;3571065;-67
2024/03/12 02:17:16;;;;;;;;;19.00;17.50;;;;;11.42;65.17;101386.56;2001017;28;2829441;-67
2024/03/12 02:18:27;;;;;;;;;27.00;24.00;;;;;11.43;65.28;101388.28;2011574;28;3584626;-67
2024/03/12 02:19:39;;;;;;;;;23.60;21.20;;;;;11.43;65.23;101382.19;2013267;28;3564791;-67
2024/03/12 02:20:51;;;;;;;;;26.80;21.60;;;;;11.44;65.22;101390.03;2017536;28;3581917;-67
2024/03/12 02:22:05;;;;;;;;;23.60;20.20;;;;;11.40;65.13;101377.84;1998493;28;3565834;-67
2024/03/12 02:23:15;;;;;;;;;29.00;26.00;;;;;11.44;65.28;101389.16;2002777;28;2849200;-67
2024/03/12 02:24:28;;;;;;;;;20.80;18.40;;;;;11.42;65.13;101385.72;1999674;28;3559591;-67
2024/03/12 02:25:39;;;;;;;;;28.00;25.00;;;;;11.44;64.71;101383.88;2002152;28;2850217;-67
2024/03/12 02:26:53;;;;;;;;;25.60;22.00;;;;;11.40;65.22;101392.78;1998608;28;3586035;-67
2024/03/12 02:28:03;;;;;;;;;21.00;12.50;;;;;11.42;65.03;101398.88;1980567;28;2832510;-67
2024/03/12 02:29:15;;;;;;;;;27.00;24.40;;;;;11.40;64.96;101392.78;1994215;28;3578333;-67
2024/03/12 02:30:27;;;;;;;;;28.80;23.20;;;;;11.38;64.88;101389.31;2016361;28;3583920;-67
2024/03/12 02:31:39;;;;;;;;;21.67;19.33;;;;;11.39;65.14;101396.31;1993176;28;3562792;-67
2024/03/12 02:32:52;;;;;;;;;28.60;22.60;;;;;11.34;64.93;101391.16;2020631;28;3584570;-67
2024/03/12 02:34:03;;;;;;;;;27.00;25.00;;;;;11.35;64.88;101400.81;1978865;28;2839805;-67
2024/03/12 02:35:15;;;;;;;;;30.50;22.50;;;;;11.36;64.84;101397.25;1979668;28;2858543;-67
2024/03/12 02:36:25;;;;;;;;;22.50;21.00;;;;;11.35;64.76;101396.41;1979880;28;2837734;-67
2024/03/12 02:37:38;;;;;;;;;23.67;21.67;;;;;11.34;64.99;101393.78;1993030;28;3579406;-67
2024/03/12 02:38:50;;;;;;;;;22.67;17.00;;;;;11.38;64.94;101399.84;1998957;28;3571081;-67
2024/03/12 02:40:01;;;;;;;;;28.00;22.50;;;;;11.38;64.91;101400.72;1999107;28;2852356;-67
2024/03/12 02:41:13;;;;;;;;;26.40;23.40;;;;;11.36;64.86;101398.13;1986761;28;3587736;-67
2024/03/12 02:42:25;;;;;;;;;22.60;19.60;;;;;11.37;64.81;101396.34;1999749;28;3566872;-67
2024/03/12 02:43:36;;;;;;;;;21.00;18.00;;;;;11.36;64.72;101391.97;2005908;28;2802355;-67
2024/03/12 02:44:48;;;;;;;;;26.80;24.40;;;;;11.39;64.82;101401.56;1966218;28;3585084;-67
2024/03/12 02:46:00;;;;;;;;;26.60;22.00;;;;;11.36;64.54;101403.38;2006523;28;3588726;-67
2024/03/12 02:47:11;;;;;;;;;27.00;23.00;;;;;11.35;64.85;101401.66;1975230;28;2846056;-67
2024/03/12 02:48:25;;;;;;;;;27.00;21.00;;;;;11.32;64.67;101400.88;1997637;28;3585605;-67
2024/03/12 02:49:36;;;;;;;;;26.33;21.00;;;;;11.28;64.49;101388.69;1965885;28;3577283;-67
2024/03/12 02:50:48;;;;;;;;;29.67;22.33;;;;;11.27;64.89;101394.84;1985489;28;3598170;-67
2024/03/12 02:52:00;;;;;;;;;25.00;17.67;;;;;11.26;65.02;101393.97;1992437;28;3582916;-67
2024/03/12 02:53:12;;;;;;;;;24.67;22.67;;;;;11.24;64.85;101396.66;2016206;28;3570020;-67
2024/03/12 02:54:27;;;;;;;;;22.67;20.00;;;;;11.24;65.00;101394.03;2013728;28;3571073;-67
2024/03/12 02:55:39;;;;;;;;;26.33;23.00;;;;;11.25;65.06;101400.16;1999422;28;3572474;-67
2024/03/12 02:56:51;;;;;;;;;16.33;16.00;;;;;11.21;65.04;101402.00;2014423;28;2821171;-67
2024/03/12 02:58:06;;;;;;;;;18.00;17.33;;;;;11.20;65.29;101399.41;1999657;28;3558579;-67
2024/03/12 02:59:17;;;;;;;;;22.00;19.67;;;;;11.16;65.71;101397.78;1999072;28;3563809;-67
2024/03/12 03:00:28;;;;;;;;;18.50;17.00;;;;;11.16;65.41;101401.25;2008411;28;2832589;-67
2024/03/12 03:01:40;;;;;;;;;23.00;20.00;;;;;11.19;65.44;101414.34;1974564;28;3566863;-67
2024/03/12 03:02:55;;;;;;;;;26.20;20.80;;;;;11.17;65.38;101402.13;2009310;28;3579357;-67
2024/03/12 03:04:10;;;;;;;;;26.67;22.00;;;;;11.16;65.60;101406.50;2000269;28;3585016;-67
2024/03/12 03:05:21;;;;;;;;;20.00;18.00;;;;;11.18;65.56;101409.13;1999967;28;2829393;-67
2024/03/12 03:06:32;;;;;;;;;25.67;20.67;;;;;11.16;65.55;101403.03;1999303;28;3583577;-67
2024/03/12 03:07:43;;;;;;;;;17.00;15.25;;;;;11.18;65.51;101406.50;2028076;28;1833639;-67
2024/03/12 03:08:55;;;;;;;;;28.00;21.33;;;;;11.18;65.62;101409.13;1977182;28;3590853;-67
2024/03/12 03:10:07;;;;;;;;;24.20;21.00;;;;;11.19;65.72;101410.81;2019347;28;3583574;-67
2024/03/12 03:11:19;;;;;;;;;21.67;21.67;;;;;11.18;65.89;101415.25;1998880;28;3579423;-67
2024/03/12 03:12:30;;;;;;;;;23.33;22.33;;;;;11.19;65.62;101418.72;2006063;28;3580443;-67
2024/03/12 03:13:42;;;;;;;;;27.67;20.33;;;;;11.20;65.95;101417.84;2009680;28;3583557;-67
2024/03/12 03:14:54;;;;;;;;;26.00;21.33;;;;;11.18;65.92;101415.25;2006473;28;3588773;-67
2024/03/12 03:16:06;;;;;;;;;25.67;19.00;;;;;11.20;65.91;101417.84;2008222;28;3581486;-67
2024/03/12 03:17:18;;;;;;;;;25.00;21.67;;;;;11.20;65.76;101416.06;2009385;28;2833748;-67
2024/03/12 03:18:29;;;;;;;;;20.00;20.00;;;;;11.22;65.83;101416.91;1992031;28;2837777;-67
2024/03/12 03:19:40;;;;;;;;;22.00;17.50;;;;;11.22;65.92;101410.75;1970390;28;2823167;-67
2024/03/12 03:20:53;;;;;;;;;22.00;21.20;;;;;11.21;66.16;101412.53;1997021;28;2839832;-67
2024/03/12 03:22:07;;;;;;;;;23.40;17.20;;;;;11.24;66.32;101416.84;2001227;28;2833596;-67
2024/03/12 03:23:18;;;;;;;;;23.00;21.33;;;;;11.24;66.17;101408.94;1969740;28;2835773;-67
2024/03/12 03:24:30;;;;;;;;;24.00;20.33;;;;;11.23;66.27;101413.38;1992231;28;3576333;-67
2024/03/12 03:25:42;;;;;;;;;24.33;20.00;;;;;11.26;66.66;101412.41;2014881;28;3587807;-67
2024/03/12 03:26:54;;;;;;;;;22.00;20.00;;;;;11.25;66.35;101410.69;2014586;28;3572575;-67
2024/03/12 03:28:06;;;;;;;;;24.67;20.67;;;;;11.25;66.39;101406.31;2000054;28;3570553;-67
2024/03/12 03:29:21;;;;;;;;;24.20;20.80;;;;;11.23;66.67;101396.72;2019112;28;3573121;-67
2024/03/12 03:30:32;;;;;;;;;26.33;21.00;;;;;11.27;66.66;101405.38;1999869;28;3575233;-67
2024/03/12 03:31:44;;;;;;;;;24.00;22.00;;;;;11.27;66.53;101416.78;2018044;28;3567945;-67
2024/03/12 03:32:56;;;;;;;;;24.67;20.33;;;;;11.27;66.84;101408.00;2008866;28;3580455;-67
2024/03/12 03:34:10;;;;;;;;;21.83;19.83;;;;;11.29;66.71;101406.19;2027012;28;2833583;-67
2024/03/12 03:35:24;;;;;;;;;22.00;19.86;;;;;11.29;66.89;101414.09;2005710;28;1832621;-67
2024/03/12 03:36:36;;;;;;;;;25.33;21.67;;;;;11.30;66.98;101419.34;1998216;28;3597126;-67
2024/03/12 03:37:48;;;;;;;;;18.67;16.67;;;;;11.30;66.85;101416.72;2009090;28;2821221;-67
2024/03/12 03:39:00;;;;;;;;;22.67;19.00;;;;;11.30;66.84;101423.72;1991469;28;2821100;-67
2024/03/12 03:40:17;;;;;;;;;28.67;19.00;;;;;11.31;66.74;101425.47;1992753;28;3601262;-67
2024/03/12 03:41:29;;;;;;;;;19.00;16.67;;;;;11.30;66.98;101419.34;1995130;28;2830926;-67
2024/03/12 03:42:43;;;;;;;;;20.33;17.67;;;;;11.31;66.60;101422.84;2029606;28;1829483;-67
2024/03/12 03:43:54;;;;;;;;;24.67;22.00;;;;;11.28;66.61;101420.28;1972165;28;3573149;-68
2024/03/12 03:45:05;;;;;;;;;22.75;19.00;;;;;11.29;66.97;101429.88;2026167;28;1839896;-68
2024/03/12 03:46:18;;;;;;;;;22.67;17.00;;;;;11.28;66.91;101433.44;1977902;28;3575247;-68
2024/03/12 03:47:34;;;;;;;;;25.00;22.00;;;;;11.28;67.00;101436.94;2000843;28;3592957;-67
2024/03/12 03:48:44;;;;;;;;;20.50;15.50;;;;;11.28;67.09;101436.06;2000857;28;2821115;-68
2024/03/12 03:49:56;;;;;;;;;24.33;20.00;;;;;11.27;67.39;101431.69;2019672;28;3570032;-68
2024/03/12 03:51:08;;;;;;;;;21.67;20.00;;;;;11.27;67.33;101429.06;2014188;28;3568013;-68
2024/03/12 03:52:20;;;;;;;;;20.33;20.33;;;;;11.28;67.48;101430.81;2006344;28;2828439;-68
2024/03/12 03:53:34;;;;;;;;;24.86;19.14;;;;;11.27;67.77;101429.06;2020521;28;1828419;-68
2024/03/12 03:54:45;;;;;;;;;26.67;22.00;;;;;11.25;67.54;101426.47;1999498;28;3584611;-67
2024/03/12 03:55:58;;;;;;;;;22.67;18.67;;;;;11.27;67.69;101418.53;2027080;28;2827330;-68
2024/03/12 03:57:09;;;;;;;;;21.00;17.00;;;;;11.30;67.54;101426.38;1993493;28;2827366;-67
2024/03/12 03:58:25;;;;;;;;;19.40;16.60;;;;;11.28;67.37;101425.53;2004073;28;1837746;-68
2024/03/12 03:59:36;;;;;;;;;23.67;20.00;;;;;11.30;67.48;101431.63;2000690;28;2849238;-68
2024/03/12 04:00:50;;;;;;;;;25.14;20.29;;;;;11.28;67.97;101434.31;2028892;28;1844144;-68
2024/03/12 04:02:01;;;;;;;;;21.50;17.50;;;;;11.24;67.75;101435.25;1993867;28;2824213;-67
2024/03/12 04:03:12;;;;;;;;;21.67;18.00;;;;;11.17;67.51;101431.06;1977451;28;3568943;-68
2024/03/12 04:04:24;;;;;;;;;24.00;19.25;;;;;11.14;67.79;101429.38;2011639;28;1834657;-67
2024/03/12 04:05:37;;;;;;;;;15.67;14.33;;;;;11.12;67.79;101423.28;2003757;28;1830594;-67
2024/03/12 04:06:51;;;;;;;;;20.67;16.67;;;;;11.13;68.13;101438.19;1972243;28;3559616;-68
2024/03/12 04:08:06;;;;;;;;;22.00;17.80;;;;;11.15;68.17;101436.38;2011767;28;2835639;-67
2024/03/12 04:09:17;;;;;;;;;14.50;13.75;;;;;11.17;68.23;101436.31;1982803;28;1838878;-68
2024/03/12 04:10:31;;;;;;;;;20.14;17.29;;;;;11.18;67.96;101433.66;2012071;28;1829898;-67
2024/03/12 04:11:48;;;;;;;;;22.67;19.00;;;;;11.16;68.26;101430.19;1989481;28;3586682;-68
2024/03/12 04:13:04;;;;;;;;;17.67;15.00;;;;;11.18;68.38;101436.31;2021489;28;1830522;-67
2024/03/12 04:14:17;;;;;;;;;20.67;17.67;;;;;11.19;68.17;101437.16;1966779;28;3567933;-67
2024/03/12 04:15:29;;;;;;;;;20.33;18.00;;;;;11.19;68.27;101437.16;1990666;28;3570096;-68
2024/03/12 04:16:41;;;;;;;;;23.33;20.00;;;;;11.18;68.53;101440.69;2001833;28;3585633;-67
2024/03/12 04:17:54;;;;;;;;;24.00;22.80;;;;;11.16;68.16;101434.59;2014166;28;3587784;-67
2024/03/12 04:19:05;;;;;;;;;26.67;21.00;;;;;11.20;68.44;101442.38;1972865;28;3589801;-68
2024/03/12 04:20:17;;;;;;;;;24.00;21.33;;;;;11.18;68.17;101438.06;1992008;28;3595057;-68
2024/03/12 04:21:29;;;;;;;;;27.20;21.20;;;;;11.19;68.16;101443.28;1986413;28;3585995;-68
2024/03/12 04:22:44;;;;;;;;;30.00;23.14;;;;;11.19;68.34;101445.91;2023753;28;2863857;-68
2024/03/12 04:23:55;;;;;;;;;20.67;17.33;;;;;11.18;68.16;101452.09;1992800;28;3566883;-68
2024/03/12 04:25:07;;;;;;;;;22.33;20.67;;;;;11.17;68.30;101452.97;2009201;28;3563781;-67
2024/03/12 04:26:19;;;;;;;;;27.33;24.00;;;;;11.16;68.27;101448.59;1992819;28;3592943;-67
2024/03/12 04:27:30;;;;;;;;;26.50;21.50;;;;;11.18;68.25;101454.72;1992637;28;2839876;-68
2024/03/12 04:28:42;;;;;;;;;26.40;21.60;;;;;11.16;68.35;101451.22;1989962;28;3590856;-67
2024/03/12 04:29:54;;;;;;;;;21.60;18.20;;;;;11.18;68.17;101451.22;2002969;28;3561647;-67
2024/03/12 04:31:07;;;;;;;;;26.67;23.00;;;;;11.16;68.40;101456.50;2001414;28;3597094;-68
2024/03/12 04:32:17;;;;;;;;;27.00;24.00;;;;;11.19;68.49;101459.06;1989635;28;2851320;-68
2024/03/12 04:33:29;;;;;;;;;24.33;20.33;;;;;11.16;68.51;101456.50;1991735;28;3582972;-68
2024/03/12 04:34:41;;;;;;;;;23.00;21.67;;;;;11.17;68.58;101460.00;1992038;28;3586749;-67
2024/03/12 04:35:53;;;;;;;;;20.80;19.20;;;;;11.17;68.57;101457.38;2023021;28;1834670;-68
2024/03/12 04:37:04;;;;;;;;;25.33;21.00;;;;;11.16;68.64;101459.13;2000433;28;3589811;-68
2024/03/12 04:38:18;;;;;;;;;24.33;21.00;;;;;11.17;68.33;101463.50;2015873;28;3586710;-67
2024/03/12 04:39:30;;;;;;;;;28.67;23.33;;;;;11.19;68.65;101459.06;2000470;28;3589830;-68
2024/03/12 04:40:47;;;;;;;;;23.00;21.33;;;;;11.17;68.68;101455.59;2018853;28;2843983;-68
2024/03/12 04:42:04;;;;;;;;;21.67;20.33;;;;;11.20;68.58;101460.81;1995980;28;3559943;-68
2024/03/12 04:43:15;;;;;;;;;25.00;22.00;;;;;11.21;68.71;101456.41;1993768;28;2850253;-68
2024/03/12 04:44:28;;;;;;;;;27.33;21.67;;;;;11.18;68.50;101457.34;1986180;28;3590837;-68
2024/03/12 04:45:42;;;;;;;;;28.00;22.33;;;;;11.17;68.67;101458.25;1990347;28;3599200;-68
2024/03/12 04:46:53;;;;;;;;;20.50;15.50;;;;;11.18;68.67;101457.34;1970004;28;2819016;-68
2024/03/12 04:48:05;;;;;;;;;25.67;23.00;;;;;11.21;68.66;101459.03;1977240;28;3576238;-67
2024/03/12 04:49:17;;;;;;;;;22.33;20.33;;;;;11.22;68.91;101460.75;2002261;28;3569004;-68
2024/03/12 04:50:29;;;;;;;;;25.33;21.67;;;;;11.19;68.76;101455.56;2016992;28;3587751;-68
2024/03/12 04:51:40;;;;;;;;;29.67;22.00;;;;;11.19;68.66;101464.31;2014707;28;3608970;-68
2024/03/12 04:52:52;;;;;;;;;21.00;18.33;;;;;11.22;68.87;101466.03;1994342;28;3563689;-68
2024/03/12 04:54:04;;;;;;;;;23.80;20.20;;;;;11.20;68.79;101458.19;2019338;28;3576234;-68
2024/03/12 04:55:16;;;;;;;;;24.00;20.00;;;;;11.21;69.14;101459.03;2009133;28;2834649;-68
2024/03/12 04:56:27;;;;;;;;;28.00;23.33;;;;;11.20;69.09;101460.81;1978407;28;3597492;-68
2024/03/12 04:57:39;;;;;;;;;24.20;20.00;;;;;11.20;69.00;101459.94;1998861;28;3570012;-68
2024/03/12 04:58:51;;;;;;;;;23.60;21.60;;;;;11.20;68.99;101454.66;2016524;28;3581489;-68
2024/03/12 05:00:13;;;;;;;;;27.67;20.00;;;;;11.20;68.86;101458.19;1993973;28;3589120;-68
2024/03/12 05:01:24;;;;;;;;;28.00;24.00;;;;;11.19;68.71;101471.34;1999420;28;3604412;-67
2024/03/12 05:02:36;;;;;;;;;27.80;23.40;;;;;11.17;68.76;101460.88;1997569;28;3585666;-68
2024/03/12 05:03:49;;;;;;;;;23.33;21.00;;;;;11.20;68.88;101468.69;2009101;28;3572135;-68
2024/03/12 05:05:00;;;;;;;;;23.67;22.33;;;;;11.19;69.09;101474.84;1993106;28;3589190;-68
2024/03/12 05:06:12;;;;;;;;;26.00;21.00;;;;;11.19;68.94;101469.59;2026777;28;3585612;-68
2024/03/12 05:07:24;;;;;;;;;27.33;23.00;;;;;11.19;69.22;101464.31;1985081;28;3590852;-68
2024/03/12 05:08:35;;;;;;;;;21.00;18.25;;;;;11.20;69.15;101468.69;2025889;28;1837810;-67
2024/03/12 05:09:47;;;;;;;;;25.00;22.00;;;;;11.21;69.26;101467.78;1976136;28;3587170;-68
2024/03/12 05:10:59;;;;;;;;;24.00;21.00;;;;;11.19;69.27;101466.09;2009689;28;3575276;-67
2024/03/12 05:12:10;;;;;;;;;26.67;22.33;;;;;11.19;68.83;101469.59;2007028;28;3588781;-68
2024/03/12 05:13:22;;;;;;;;;25.40;21.20;;;;;11.21;68.91;101464.31;2013897;28;3585677;-68
2024/03/12 05:14:34;;;;;;;;;21.33;20.67;;;;;11.19;69.00;101469.59;1990199;28;3576270;-68
2024/03/12 05:15:46;;;;;;;;;20.33;18.33;;;;;11.19;68.98;101466.09;2007622;28;2819037;-68
2024/03/12 05:16:59;;;;;;;;;19.00;16.67;;;;;11.18;69.04;101467.88;1991641;28;3559611;-68
2024/03/12 05:18:10;;;;;;;;;20.33;18.67;;;;;11.19;68.79;101473.97;1991634;28;3557533;-68
2024/03/12 05:19:24;;;;;;;;;24.67;22.00;;;;;11.17;68.86;101471.41;2009420;28;3578365;-68
2024/03/12 05:20:36;;;;;;;;;21.00;18.50;;;;;11.17;69.21;101471.41;2000736;28;2831516;-67
2024/03/12 05:21:48;;;;;;;;;22.80;21.40;;;;;11.20;69.10;101475.72;2018876;28;2840329;-68